Blue Star Naxos — SZUI — position and weather

sailwx.info

Track history (hours):
 
Tides and Currents Weather Stations Pressure Air Temp Water Temp Dewpoint Dewpoint Depression Visibility Wind Speed Wind Dir Waves Ship Positions

Blue Star Naxos

Last reported at 2015-Jan-25 14:33 UTC. Time now 2015-Jan-25 16:22 UTC.
Position N 37°57' E 023°38'.

Length 124 m; draft 5 m.

Type: Passenger vessel. MMSI: 239923000.

Date/timePositionNaut miles runAvg speedWind from/ knotsBaromVisibWave heightAir tempDewpointWater temp
2015-Jan-25 14:33N 37°57' E 023°38'1818.2
2015-Jan-25 13:33N 37°40' E 023°47'5122.0
2015-Jan-25 11:14N 37°18' E 024°45'1522.7
2015-Jan-25 10:33N 37°09' E 025°01'10 9.5
2015-Jan-25 09:33N 37°10' E 025°13'7 6.9
2015-Jan-25 08:33N 37°04' E 025°18'1613.4
2015-Jan-25 07:24N 36°52' E 025°30'1212.3
2015-Jan-25 06:25N 36°53' E 025°45'1 0.0
2015-Jan-24 00:33N 36°51' E 025°47'1413.3
2015-Jan-23 23:32N 36°52' E 025°30'11 9.5
2015-Jan-23 22:24N 36°59' E 025°19'8 9.1
2015-Jan-23 21:34N 37°06' E 025°22'2010.2
2015-Jan-23 19:33N 37°12' E 024°57'6421.1
2015-Jan-23 16:32N 37°38' E 023°45'1919.3
2015-Jan-23 15:33N 37°56' E 023°38'1 0.6
2015-Jan-23 14:33N 37°57' E 023°38'0 0.2
2015-Jan-23 13:33N 37°57' E 023°38'2019.8
2015-Jan-23 12:33N 37°39' E 023°50'5022.1
2015-Jan-23 10:18N 37°17' E 024°46'1722.8
2015-Jan-23 09:33N 37°08' E 025°04'1010.5
2015-Jan-23 08:34N 37°10' E 025°16'1010.1
2015-Jan-23 07:33N 37°12' E 025°29'1714.5
2015-Jan-23 06:22N 37°04' E 025°48'1112.4
2015-Jan-23 05:28N 36°56' E 025°57'2110.1
2015-Jan-23 03:23N 36°41' E 026°16'2120.3
2015-Jan-23 02:21N 36°57' E 025°59'5 6.8
2015-Jan-23 01:33N 36°58' E 025°53'1717.1
2015-Jan-23 00:33N 37°11' E 025°38'1313.0
2015-Jan-22 23:33N 37°06' E 025°22'1211.7
2015-Jan-22 22:33N 37°06' E 025°07'1 1.3
2015-Jan-22 21:25N 37°08' E 025°08'1516.0
2015-Jan-22 20:30N 37°22' E 025°02'6 6.1
2015-Jan-22 19:32N 37°26' E 024°57'5919.4
2015-Jan-22 16:30N 37°39' E 023°44'1819.2
2015-Jan-22 15:33N 37°57' E 023°38'0 0.4
2015-Jan-22 14:33N 37°57' E 023°38'0 0.0
2015-Jan-22 13:33N 37°57' E 023°38'8 8.5
2015-Jan-22 12:34N 37°49' E 023°41'2621.9
2015-Jan-22 11:21N 37°33' E 024°08'4022.5
2015-Jan-22 09:33N 37°13' E 024°53'1515.3
2015-Jan-22 08:33N 37°05' E 025°09'11 9.5
2015-Jan-22 07:26N 37°06' E 025°22'8 9.2
2015-Jan-22 06:32N 37°12' E 025°29'2118.4
2015-Jan-22 05:23N 37°00' E 025°51'810.2
2015-Jan-22 04:33N 36°57' E 026°01'24 7.9
2015-Jan-22 01:30N 36°37' E 026°19'2121.6
2015-Jan-22 00:33N 36°55' E 026°06'1110.7
2015-Jan-21 23:33N 36°58' E 025°53'1116.1
2015-Jan-21 22:50N 37°07' E 025°44'121.7
2015-Jan-21 22:46N 37°08' E 025°43'521.5
2015-Jan-21 22:33N 37°11' E 025°38'1313.1
2015-Jan-21 21:33N 37°06' E 025°22'1211.5
2015-Jan-21 20:33N 37°07' E 025°08'8 8.6
2015-Jan-21 19:33N 37°11' E 024°58'5221.3
2015-Jan-21 17:08N 37°35' E 024°01'1321.7
2015-Jan-21 16:31N 37°39' E 023°45'1819.2
2015-Jan-21 15:34N 37°57' E 023°38'0 0.3
2015-Jan-21 14:34N 37°57' E 023°38'0 0.0
2015-Jan-21 13:34N 37°57' E 023°38'8 7.8
2015-Jan-21 12:33N 37°49' E 023°41'6621.9
2015-Jan-21 09:33N 37°14' E 024°51'1716.9
2015-Jan-21 08:33N 37°05' E 025°09'1110.7
2015-Jan-21 07:33N 37°06' E 025°22'13 9.9
2015-Jan-21 06:12N 36°53' E 025°23'6 8.8
2015-Jan-21 05:33N 36°52' E 025°31'1010.2
2015-Jan-21 04:33N 36°54' E 025°43'6 1.9
2015-Jan-21 01:33N 36°50' E 025°49'1211.1
2015-Jan-21 00:30N 36°53' E 025°34'1310.0
2015-Jan-20 23:13N 36°59' E 025°20'711.2
2015-Jan-20 22:33N 37°06' E 025°22'1110.6
2015-Jan-20 21:32N 37°07' E 025°09'6 5.7
2015-Jan-20 20:33N 37°12' E 025°05'1514.2
2015-Jan-20 19:28N 37°26' E 024°57'5819.8
2015-Jan-20 16:33N 37°39' E 023°46'1919.1
2015-Jan-20 15:33N 37°56' E 023°38'1 0.6
2015-Jan-20 14:33N 37°57' E 023°38'0 0.0
2015-Jan-20 13:33N 37°57' E 023°38'8 7.6
2015-Jan-20 12:33N 37°49' E 023°40'2821.5
2015-Jan-20 11:16N 37°33' E 024°09'3822.1
2015-Jan-20 09:34N 37°15' E 024°51'1817.2
2015-Jan-20 08:32N 37°05' E 025°09'1010.7
2015-Jan-20 07:33N 37°06' E 025°22'8 7.7
2015-Jan-20 06:33N 37°12' E 025°29'1918.0
2015-Jan-20 05:30N 37°02' E 025°49'1111.4
2015-Jan-20 04:31N 36°57' E 026°02'9 2.3
2015-Jan-20 00:34N 36°50' E 026°09'1211.1
2015-Jan-19 23:30N 36°55' E 025°56'1717.7
2015-Jan-19 22:33N 37°08' E 025°42'1616.3
2015-Jan-19 21:33N 37°06' E 025°22'1010.0
2015-Jan-19 20:33N 37°08' E 025°10'9 9.1
2015-Jan-19 19:34N 37°10' E 024°59'6521.5
2015-Jan-19 16:31N 37°39' E 023°45'1819.1
2015-Jan-19 15:34N 37°57' E 023°38'0 0.2
2015-Jan-19 14:33N 37°57' E 023°38'0 0.0
2015-Jan-19 13:33N 37°57' E 023°38'7 6.6
2015-Jan-19 12:34N 37°50' E 023°40'6621.9
2015-Jan-19 09:33N 37°16' E 024°50'1712.6
2015-Jan-19 08:14N 37°06' E 025°07'1217.3
2015-Jan-19 07:33N 37°06' E 025°22'5 5.1
2015-Jan-19 06:33N 37°02' E 025°18'1413.6
2015-Jan-19 05:32N 36°52' E 025°31'1010.5
2015-Jan-19 04:33N 36°54' E 025°43'7 1.7
2015-Jan-19 00:28N 36°50' E 025°50'1415.3
2015-Jan-18 23:33N 36°54' E 025°33'1210.4
2015-Jan-18 22:25N 36°59' E 025°20'910.3
2015-Jan-18 21:33N 37°08' E 025°20'1110.2
2015-Jan-18 20:29N 37°08' E 025°06'2020.6
2015-Jan-18 19:31N 37°26' E 024°57'5719.0
2015-Jan-18 16:33N 37°38' E 023°47'1919.4
2015-Jan-18 15:33N 37°56' E 023°38'7 2.2
2015-Jan-18 12:33N 37°50' E 023°40'6622.1
2015-Jan-18 09:34N 37°15' E 024°52'1717.1
2015-Jan-18 08:33N 37°05' E 025°09'1110.7
2015-Jan-18 07:34N 37°06' E 025°22'7 6.6
2015-Jan-18 06:33N 37°00' E 025°20'1211.6
2015-Jan-18 05:33N 36°52' E 025°31'1110.4
2015-Jan-18 04:32N 36°54' E 025°43'7 0.2
2015-Jan-17 00:30N 36°50' E 025°50'1314.0
2015-Jan-16 23:33N 36°53' E 025°34'13 9.7
2015-Jan-16 22:16N 36°59' E 025°20'710.4
2015-Jan-16 21:33N 37°06' E 025°22'11 8.7
2015-Jan-16 20:20N 37°05' E 025°09'1012.4
2015-Jan-16 19:33N 37°11' E 024°59'4621.3
2015-Jan-16 17:25N 37°32' E 024°08'2121.7
2015-Jan-16 16:28N 37°39' E 023°44'1819.9
2015-Jan-16 15:34N 37°56' E 023°38'1 0.5
2015-Jan-16 14:33N 37°57' E 023°38'0 0.0
2015-Jan-16 13:33N 37°57' E 023°38'8 8.3
2015-Jan-16 12:33N 37°49' E 023°41'6621.9
2015-Jan-16 09:33N 37°15' E 024°52'1611.2
2015-Jan-16 08:09N 37°08' E 025°09'1017.2
2015-Jan-16 07:33N 37°06' E 025°22'1110.4
2015-Jan-16 06:33N 37°13' E 025°32'1918.7
2015-Jan-16 05:32N 37°01' E 025°51'1312.3
2015-Jan-16 04:28N 36°55' E 026°05'2410.8
2015-Jan-16 02:15N 36°35' E 026°21'1621.7
2015-Jan-16 01:31N 36°48' E 026°10'1311.2
2015-Jan-16 00:20N 36°55' E 025°56'1417.1
2015-Jan-15 23:32N 37°06' E 025°46'1818.5
2015-Jan-15 22:33N 37°09' E 025°24'10 9.6
2015-Jan-15 21:33N 37°09' E 025°12'6 5.7
2015-Jan-15 20:33N 37°11' E 025°05'1716.4
2015-Jan-15 19:31N 37°26' E 024°57'5819.3
2015-Jan-15 16:30N 37°38' E 023°44'1920.2
2015-Jan-15 15:33N 37°57' E 023°38'0 0.3
2015-Jan-15 14:33N 37°57' E 023°38'  
Track history (hours):
 
Tides and Currents Weather Stations Pressure Air Temp Water Temp Dewpoint Dewpoint Depression Visibility Wind Speed Wind Dir Waves Ship Positions

Blue Star Naxos

Last reported at 2015-Jan-25 14:33 UTC. Time now 2015-Jan-25 16:22 UTC.
Position N 37°57' E 023°38'.

Length 124 m; draft 5 m.

Type: Passenger vessel. MMSI: 239923000.

Date/timePositionNaut miles runAvg speedWind from/ knotsBaromVisibWave heightAir tempDewpointWater temp
2015-Jan-25 14:33N 37°57' E 023°38'1818.2
2015-Jan-25 13:33N 37°40' E 023°47'5122.0
2015-Jan-25 11:14N 37°18' E 024°45'1522.7
2015-Jan-25 10:33N 37°09' E 025°01'10 9.5
2015-Jan-25 09:33N 37°10' E 025°13'7 6.9
2015-Jan-25 08:33N 37°04' E 025°18'1613.4
2015-Jan-25 07:24N 36°52' E 025°30'1212.3
2015-Jan-25 06:25N 36°53' E 025°45'1 0.0
2015-Jan-24 00:33N 36°51' E 025°47'1413.3
2015-Jan-23 23:32N 36°52' E 025°30'11 9.5
2015-Jan-23 22:24N 36°59' E 025°19'8 9.1
2015-Jan-23 21:34N 37°06' E 025°22'2010.2
2015-Jan-23 19:33N 37°12' E 024°57'6421.1
2015-Jan-23 16:32N 37°38' E 023°45'1919.3
2015-Jan-23 15:33N 37°56' E 023°38'1 0.6
2015-Jan-23 14:33N 37°57' E 023°38'0 0.2
2015-Jan-23 13:33N 37°57' E 023°38'2019.8
2015-Jan-23 12:33N 37°39' E 023°50'5022.1
2015-Jan-23 10:18N 37°17' E 024°46'1722.8
2015-Jan-23 09:33N 37°08' E 025°04'1010.5
2015-Jan-23 08:34N 37°10' E 025°16'1010.1
2015-Jan-23 07:33N 37°12' E 025°29'1714.5
2015-Jan-23 06:22N 37°04' E 025°48'1112.4
2015-Jan-23 05:28N 36°56' E 025°57'2110.1
2015-Jan-23 03:23N 36°41' E 026°16'2120.3
2015-Jan-23 02:21N 36°57' E 025°59'5 6.8
2015-Jan-23 01:33N 36°58' E 025°53'1717.1
2015-Jan-23 00:33N 37°11' E 025°38'1313.0
2015-Jan-22 23:33N 37°06' E 025°22'1211.7
2015-Jan-22 22:33N 37°06' E 025°07'1 1.3
2015-Jan-22 21:25N 37°08' E 025°08'1516.0
2015-Jan-22 20:30N 37°22' E 025°02'6 6.1
2015-Jan-22 19:32N 37°26' E 024°57'5919.4
2015-Jan-22 16:30N 37°39' E 023°44'1819.2
2015-Jan-22 15:33N 37°57' E 023°38'0 0.4
2015-Jan-22 14:33N 37°57' E 023°38'0 0.0
2015-Jan-22 13:33N 37°57' E 023°38'8 8.5
2015-Jan-22 12:34N 37°49' E 023°41'2621.9
2015-Jan-22 11:21N 37°33' E 024°08'4022.5
2015-Jan-22 09:33N 37°13' E 024°53'1515.3
2015-Jan-22 08:33N 37°05' E 025°09'11 9.5
2015-Jan-22 07:26N 37°06' E 025°22'8 9.2
2015-Jan-22 06:32N 37°12' E 025°29'2118.4
2015-Jan-22 05:23N 37°00' E 025°51'810.2
2015-Jan-22 04:33N 36°57' E 026°01'24 7.9
2015-Jan-22 01:30N 36°37' E 026°19'2121.6
2015-Jan-22 00:33N 36°55' E 026°06'1110.7
2015-Jan-21 23:33N 36°58' E 025°53'1116.1
2015-Jan-21 22:50N 37°07' E 025°44'121.7
2015-Jan-21 22:46N 37°08' E 025°43'521.5
2015-Jan-21 22:33N 37°11' E 025°38'1313.1
2015-Jan-21 21:33N 37°06' E 025°22'1211.5
2015-Jan-21 20:33N 37°07' E 025°08'8 8.6
2015-Jan-21 19:33N 37°11' E 024°58'5221.3
2015-Jan-21 17:08N 37°35' E 024°01'1321.7
2015-Jan-21 16:31N 37°39' E 023°45'1819.2
2015-Jan-21 15:34N 37°57' E 023°38'0 0.3
2015-Jan-21 14:34N 37°57' E 023°38'0 0.0
2015-Jan-21 13:34N 37°57' E 023°38'8 7.8
2015-Jan-21 12:33N 37°49' E 023°41'6621.9
2015-Jan-21 09:33N 37°14' E 024°51'1716.9
2015-Jan-21 08:33N 37°05' E 025°09'1110.7
2015-Jan-21 07:33N 37°06' E 025°22'13 9.9
2015-Jan-21 06:12N 36°53' E 025°23'6 8.8
2015-Jan-21 05:33N 36°52' E 025°31'1010.2
2015-Jan-21 04:33N 36°54' E 025°43'6 1.9
2015-Jan-21 01:33N 36°50' E 025°49'1211.1
2015-Jan-21 00:30N 36°53' E 025°34'1310.0
2015-Jan-20 23:13N 36°59' E 025°20'711.2
2015-Jan-20 22:33N 37°06' E 025°22'1110.6
2015-Jan-20 21:32N 37°07' E 025°09'6 5.7
2015-Jan-20 20:33N 37°12' E 025°05'1514.2
2015-Jan-20 19:28N 37°26' E 024°57'5819.8
2015-Jan-20 16:33N 37°39' E 023°46'1919.1
2015-Jan-20 15:33N 37°56' E 023°38'1 0.6
2015-Jan-20 14:33N 37°57' E 023°38'0 0.0
2015-Jan-20 13:33N 37°57' E 023°38'8 7.6
2015-Jan-20 12:33N 37°49' E 023°40'2821.5
2015-Jan-20 11:16N 37°33' E 024°09'3822.1
2015-Jan-20 09:34N 37°15' E 024°51'1817.2
2015-Jan-20 08:32N 37°05' E 025°09'1010.7
2015-Jan-20 07:33N 37°06' E 025°22'8 7.7
2015-Jan-20 06:33N 37°12' E 025°29'1918.0
2015-Jan-20 05:30N 37°02' E 025°49'1111.4
2015-Jan-20 04:31N 36°57' E 026°02'9 2.3
2015-Jan-20 00:34N 36°50' E 026°09'1211.1
2015-Jan-19 23:30N 36°55' E 025°56'1717.7
2015-Jan-19 22:33N 37°08' E 025°42'1616.3
2015-Jan-19 21:33N 37°06' E 025°22'1010.0
2015-Jan-19 20:33N 37°08' E 025°10'9 9.1
2015-Jan-19 19:34N 37°10' E 024°59'6521.5
2015-Jan-19 16:31N 37°39' E 023°45'1819.1
2015-Jan-19 15:34N 37°57' E 023°38'0 0.2
2015-Jan-19 14:33N 37°57' E 023°38'0 0.0
2015-Jan-19 13:33N 37°57' E 023°38'7 6.6
2015-Jan-19 12:34N 37°50' E 023°40'6621.9
2015-Jan-19 09:33N 37°16' E 024°50'1712.6
2015-Jan-19 08:14N 37°06' E 025°07'1217.3
2015-Jan-19 07:33N 37°06' E 025°22'5 5.1
2015-Jan-19 06:33N 37°02' E 025°18'1413.6
2015-Jan-19 05:32N 36°52' E 025°31'1010.5
2015-Jan-19 04:33N 36°54' E 025°43'7 1.7
2015-Jan-19 00:28N 36°50' E 025°50'1415.3
2015-Jan-18 23:33N 36°54' E 025°33'1210.4
2015-Jan-18 22:25N 36°59' E 025°20'910.3
2015-Jan-18 21:33N 37°08' E 025°20'1110.2
2015-Jan-18 20:29N 37°08' E 025°06'2020.6
2015-Jan-18 19:31N 37°26' E 024°57'5719.0
2015-Jan-18 16:33N 37°38' E 023°47'1919.4
2015-Jan-18 15:33N 37°56' E 023°38'7 2.2
2015-Jan-18 12:33N 37°50' E 023°40'6622.1
2015-Jan-18 09:34N 37°15' E 024°52'1717.1
2015-Jan-18 08:33N 37°05' E 025°09'1110.7
2015-Jan-18 07:34N 37°06' E 025°22'7 6.6
2015-Jan-18 06:33N 37°00' E 025°20'1211.6
2015-Jan-18 05:33N 36°52' E 025°31'1110.4
2015-Jan-18 04:32N 36°54' E 025°43'7 0.2
2015-Jan-17 00:30N 36°50' E 025°50'1314.0
2015-Jan-16 23:33N 36°53' E 025°34'13 9.7
2015-Jan-16 22:16N 36°59' E 025°20'710.4
2015-Jan-16 21:33N 37°06' E 025°22'11 8.7
2015-Jan-16 20:20N 37°05' E 025°09'1012.4
2015-Jan-16 19:33N 37°11' E 024°59'4621.3
2015-Jan-16 17:25N 37°32' E 024°08'2121.7
2015-Jan-16 16:28N 37°39' E 023°44'1819.9
2015-Jan-16 15:34N 37°56' E 023°38'1 0.5
2015-Jan-16 14:33N 37°57' E 023°38'0 0.0
2015-Jan-16 13:33N 37°57' E 023°38'8 8.3
2015-Jan-16 12:33N 37°49' E 023°41'6621.9
2015-Jan-16 09:33N 37°15' E 024°52'1611.2
2015-Jan-16 08:09N 37°08' E 025°09'1017.2
2015-Jan-16 07:33N 37°06' E 025°22'1110.4
2015-Jan-16 06:33N 37°13' E 025°32'1918.7
2015-Jan-16 05:32N 37°01' E 025°51'1312.3
2015-Jan-16 04:28N 36°55' E 026°05'2410.8
2015-Jan-16 02:15N 36°35' E 026°21'1621.7
2015-Jan-16 01:31N 36°48' E 026°10'1311.2
2015-Jan-16 00:20N 36°55' E 025°56'1417.1
2015-Jan-15 23:32N 37°06' E 025°46'1818.5
2015-Jan-15 22:33N 37°09' E 025°24'10 9.6
2015-Jan-15 21:33N 37°09' E 025°12'6 5.7
2015-Jan-15 20:33N 37°11' E 025°05'1716.4
2015-Jan-15 19:31N 37°26' E 024°57'5819.3
2015-Jan-15 16:30N 37°38' E 023°44'1920.2
2015-Jan-15 15:33N 37°57' E 023°38'0 0.3
2015-Jan-15 14:33N 37°57' E 023°38'  

Dump ship's entire track history